createdAt,value
2023-03-02T00:00:16.738Z,59.23
2023-03-02T00:02:45.617Z,56.20
2023-03-02T00:05:14.945Z,54.93
2023-03-02T00:07:43.532Z,55.80
2023-03-02T00:10:14.085Z,54.73
2023-03-02T00:12:42.803Z,55.13
2023-03-02T00:15:12.147Z,54.50
2023-03-02T00:17:40.811Z,56.27
2023-03-02T00:20:11.920Z,58.23
2023-03-02T00:22:42.196Z,57.53
2023-03-02T00:25:13.852Z,58.63
2023-03-02T00:27:42.860Z,60.57
2023-03-02T00:30:13.026Z,58.23
2023-03-02T00:32:42.055Z,60.40
2023-03-02T00:35:11.401Z,61.00
2023-03-02T00:37:40.271Z,60.00
2023-03-02T00:40:10.870Z,58.27
2023-03-02T00:42:40.910Z,59.07
2023-03-02T00:45:10.574Z,56.40
2023-03-02T00:47:41.469Z,60.63
2023-03-02T00:50:11.816Z,56.97
2023-03-02T00:52:40.313Z,55.87
2023-03-02T00:55:09.601Z,59.07
2023-03-02T00:57:38.129Z,58.23
2023-03-02T01:00:09.685Z,57.07
2023-03-02T01:02:39.317Z,58.67
2023-03-02T01:05:08.506Z,57.67
2023-03-02T01:07:37.111Z,60.27
2023-03-02T01:10:06.248Z,58.00
2023-03-02T01:12:35.001Z,55.63
2023-03-02T01:15:04.125Z,57.93
2023-03-02T01:17:34.203Z,56.23
2023-03-02T01:20:03.039Z,56.00
2023-03-02T01:22:31.734Z,58.50
2023-03-02T01:25:00.327Z,61.07
2023-03-02T01:27:28.973Z,60.73
2023-03-02T01:29:57.503Z,60.40
2023-03-02T01:32:26.066Z,62.47
2023-03-02T01:34:56.141Z,64.37
2023-03-02T01:37:24.840Z,66.13
2023-03-02T01:39:53.550Z,65.63
2023-03-02T01:42:22.176Z,68.23
2023-03-02T01:44:52.594Z,66.07
2023-03-02T01:47:24.890Z,65.03
2023-03-02T01:49:58.782Z,62.77
2023-03-02T01:52:28.709Z,61.67
2023-03-02T01:55:00.860Z,66.43
2023-03-02T01:57:33.757Z,61.73
2023-03-02T02:00:08.751Z,56.57
2023-03-02T02:02:42.031Z,60.47
2023-03-02T02:05:15.063Z,60.97
2023-03-02T02:07:44.151Z,60.33
2023-03-02T02:10:13.434Z,56.17
2023-03-02T02:12:42.052Z,53.60
2023-03-02T02:15:11.315Z,52.20
2023-03-02T02:17:39.871Z,50.40
2023-03-02T02:20:22.348Z,51.97
2023-03-02T02:22:58.954Z,51.40
2023-03-02T02:25:45.448Z,47.03
2023-03-02T02:28:20.377Z,48.40
2023-03-02T02:30:52.641Z,48.43
2023-03-02T02:33:25.528Z,49.40
2023-03-02T02:35:58.533Z,45.23
2023-03-02T02:38:28.256Z,50.37
2023-03-02T02:40:59.653Z,47.53
2023-03-02T02:43:32.128Z,46.53
2023-03-02T02:46:02.034Z,45.57
2023-03-02T02:48:33.013Z,48.00
2023-03-02T02:51:03.482Z,81.60
2023-03-02T02:53:37.347Z,40.90
2023-03-02T02:56:10.135Z,40.23
2023-03-02T02:58:44.864Z,43.80
2023-03-02T03:01:16.028Z,46.77
2023-03-02T03:03:51.343Z,45.20
2023-03-02T03:06:23.484Z,43.83
2023-03-02T03:08:59.238Z,45.93
2023-03-02T03:11:29.951Z,47.87
2023-03-02T03:14:05.085Z,50.70
2023-03-02T03:16:35.768Z,46.67
2023-03-02T03:19:11.152Z,45.83
2023-03-02T03:21:39.660Z,47.63
2023-03-02T03:24:08.952Z,45.87
2023-03-02T03:26:37.457Z,46.83
2023-03-02T03:29:07.703Z,44.83
2023-03-02T03:31:36.680Z,48.87
2023-03-02T03:34:05.495Z,48.97
2023-03-02T03:36:35.145Z,47.07
2023-03-02T03:39:05.752Z,51.57
2023-03-02T03:41:35.151Z,49.90
2023-03-02T03:44:04.540Z,47.70
2023-03-02T03:46:35.244Z,50.83
2023-03-02T03:49:05.072Z,48.43
2023-03-02T03:51:35.651Z,45.30
2023-03-02T03:54:05.561Z,50.43
2023-03-02T03:56:36.544Z,46.80
2023-03-02T03:59:10.190Z,46.23
2023-03-02T04:01:41.833Z,49.23
2023-03-02T04:04:12.715Z,46.20
2023-03-02T04:06:42.215Z,43.20
2023-03-02T04:09:12.394Z,46.60
2023-03-02T04:11:42.659Z,46.73
2023-03-02T04:14:12.736Z,50.40
2023-03-02T04:16:43.631Z,46.17
2023-03-02T04:19:13.484Z,46.50
2023-03-02T04:21:45.163Z,48.73
2023-03-02T04:24:14.622Z,48.90
2023-03-02T04:26:44.382Z,52.13
2023-03-02T04:29:14.172Z,51.23
2023-03-02T04:31:44.264Z,49.30
2023-03-02T04:34:13.078Z,52.10
2023-03-02T04:36:42.685Z,58.80
2023-03-02T04:39:12.335Z,51.80
2023-03-02T04:41:40.935Z,50.57
2023-03-02T04:44:09.436Z,50.60
2023-03-02T04:46:38.039Z,53.60
2023-03-02T04:49:08.569Z,53.37
2023-03-02T04:51:39.646Z,54.40
2023-03-02T04:54:09.870Z,51.00
2023-03-02T04:56:38.598Z,48.60
2023-03-02T04:59:07.251Z,53.53
2023-03-02T05:01:36.171Z,51.20
2023-03-02T05:04:05.109Z,69.25
2023-03-02T05:06:35.207Z,43.00
2023-03-02T05:09:05.386Z,41.60
2023-03-02T05:11:33.986Z,44.80
2023-03-02T05:14:06.407Z,50.10
2023-03-02T05:16:37.324Z,44.73
2023-03-02T05:19:08.022Z,48.13
2023-03-02T05:21:38.033Z,51.37
2023-03-02T05:24:08.936Z,46.97
2023-03-02T05:26:37.922Z,49.90
2023-03-02T05:29:06.873Z,42.92
2023-03-02T05:31:38.211Z,36.63
2023-03-02T05:34:08.680Z,42.67
2023-03-02T05:36:39.291Z,46.87
2023-03-02T05:39:09.100Z,44.57
2023-03-02T05:41:38.495Z,47.27
2023-03-02T05:44:09.811Z,46.23
2023-03-02T05:46:38.428Z,43.93
2023-03-02T05:49:07.107Z,41.87
2023-03-02T05:51:35.614Z,40.80
2023-03-02T05:54:05.799Z,71.17
2023-03-02T05:56:34.642Z,36.83
2023-03-02T05:59:03.437Z,36.03
2023-03-02T06:01:32.375Z,38.83
2023-03-02T06:04:01.133Z,37.23
2023-03-02T06:06:30.526Z,53.57
2023-03-02T06:09:00.979Z,38.53
2023-03-02T06:11:31.157Z,36.13
2023-03-02T06:13:59.737Z,47.70
2023-03-02T06:16:28.310Z,35.70
2023-03-02T06:18:56.846Z,32.83
2023-03-02T06:21:25.436Z,40.97
2023-03-02T06:23:53.998Z,46.10
2023-03-02T06:26:22.848Z,46.70
2023-03-02T06:28:53.984Z,37.10
2023-03-02T06:31:23.265Z,35.50
2023-03-02T06:33:52.195Z,40.93
2023-03-02T06:36:20.979Z,44.17
2023-03-02T06:38:49.625Z,44.37
2023-03-02T06:41:18.497Z,44.93
2023-03-02T06:43:47.074Z,45.03
2023-03-02T06:46:17.106Z,44.23
2023-03-02T06:48:45.703Z,43.93
2023-03-02T06:51:14.250Z,60.20
2023-03-02T06:53:42.772Z,54.27
2023-03-02T06:56:11.838Z,47.77
2023-03-02T06:58:40.405Z,48.50
2023-03-02T07:01:09.179Z,46.70
2023-03-02T07:03:39.261Z,41.77
2023-03-02T07:06:09.045Z,57.00
2023-03-02T07:08:37.549Z,48.53
2023-03-02T07:11:11.113Z,41.00
2023-03-02T07:13:40.177Z,43.77
2023-03-02T07:16:10.302Z,44.67
2023-03-02T07:18:40.813Z,45.33
2023-03-02T07:21:09.427Z,42.60
2023-03-02T07:23:38.003Z,42.57
2023-03-02T07:26:08.725Z,42.23
2023-03-02T07:28:39.699Z,40.30
2023-03-02T07:31:09.196Z,41.27
2023-03-02T07:33:40.227Z,41.23
2023-03-02T07:36:10.286Z,44.70
2023-03-02T07:38:40.021Z,47.03
2023-03-02T07:41:09.345Z,45.30
2023-03-02T07:43:38.285Z,46.87
2023-03-02T07:46:07.257Z,40.63
2023-03-02T07:48:36.076Z,43.47
2023-03-02T07:51:07.720Z,61.70
2023-03-02T07:53:36.405Z,58.37
2023-03-02T07:56:08.554Z,62.67
2023-03-02T07:58:37.717Z,48.57
2023-03-02T08:01:06.968Z,47.93
2023-03-02T08:03:35.850Z,49.17
2023-03-02T08:06:09.147Z,56.07
2023-03-02T08:08:38.488Z,50.60
2023-03-02T08:11:08.048Z,48.93
2023-03-02T08:13:37.041Z,49.93
2023-03-02T08:16:07.701Z,46.90
2023-03-02T08:18:37.032Z,43.70
2023-03-02T08:21:06.364Z,41.67
2023-03-02T08:23:36.280Z,41.27
2023-03-02T08:26:05.093Z,41.97
2023-03-02T08:28:33.698Z,41.27
2023-03-02T08:31:03.165Z,37.87
2023-03-02T08:33:32.295Z,40.10
2023-03-02T08:36:02.980Z,37.00
2023-03-02T08:38:32.358Z,32.40
2023-03-02T08:41:05.640Z,31.43
2023-03-02T08:43:34.527Z,30.13
2023-03-02T08:46:03.720Z,31.00
2023-03-02T08:48:32.471Z,30.47
2023-03-02T08:51:03.818Z,29.43
2023-03-02T08:53:34.065Z,30.57
2023-03-02T08:56:04.442Z,32.53
2023-03-02T08:58:32.989Z,31.40
2023-03-02T09:01:01.660Z,30.37
2023-03-02T09:03:30.182Z,31.00
2023-03-02T09:05:59.153Z,30.33
2023-03-02T09:08:27.682Z,32.23
2023-03-02T09:10:56.208Z,34.50
2023-03-02T09:13:26.247Z,32.27
2023-03-02T09:15:54.801Z,33.30
2023-03-02T09:18:23.499Z,28.13
2023-03-02T09:20:52.739Z,25.07
2023-03-02T09:23:21.784Z,25.80
2023-03-02T09:25:51.217Z,27.03
2023-03-02T09:28:21.819Z,27.10
2023-03-02T09:30:53.240Z,21.93
2023-03-02T09:33:22.679Z,19.03
2023-03-02T09:35:51.744Z,21.77
2023-03-02T09:38:21.329Z,18.90
2023-03-02T09:41:07.301Z,16.47
2023-03-02T09:43:45.239Z,18.30
2023-03-02T09:46:22.999Z,20.03
2023-03-02T09:49:07.690Z,18.23
2023-03-02T09:51:43.284Z,19.80
2023-03-02T09:54:14.080Z,21.73
2023-03-02T09:56:46.448Z,20.37
2023-03-02T09:59:25.723Z,20.87
2023-03-02T10:02:01.588Z,27.90
2023-03-02T10:04:34.303Z,24.83
2023-03-02T10:07:14.001Z,27.87
2023-03-02T10:09:42.988Z,34.90
2023-03-02T10:12:38.895Z,33.27
2023-03-02T10:15:14.237Z,39.40
2023-03-02T10:17:58.601Z,28.03
2023-03-02T10:20:34.647Z,26.50
2023-03-02T10:23:16.806Z,27.77
2023-03-02T10:25:49.841Z,26.40
2023-03-02T10:28:21.892Z,23.87
2023-03-02T10:30:57.800Z,22.52
2023-03-02T10:33:29.206Z,23.57
2023-03-02T10:35:57.842Z,20.40
2023-03-02T10:38:27.928Z,22.53
2023-03-02T10:41:12.114Z,30.67
2023-03-02T10:43:46.983Z,19.00
2023-03-02T10:46:16.670Z,21.83
2023-03-02T10:48:58.377Z,24.17
2023-03-02T10:51:29.322Z,24.17
2023-03-02T10:54:08.753Z,23.63
2023-03-02T10:56:37.686Z,24.77
2023-03-02T10:59:29.766Z,23.37
2023-03-02T11:02:02.810Z,25.50
2023-03-02T11:04:33.385Z,25.60
2023-03-02T11:07:12.428Z,21.23
2023-03-02T11:09:41.382Z,22.97
2023-03-02T11:12:16.105Z,26.07
2023-03-02T11:14:44.831Z,19.17
2023-03-02T11:17:33.384Z,25.47
2023-03-02T11:20:07.556Z,23.40
2023-03-02T11:22:41.289Z,23.17
2023-03-02T11:25:17.788Z,20.07
2023-03-02T11:27:48.731Z,21.63
2023-03-02T11:30:20.492Z,20.47
2023-03-02T11:32:55.359Z,24.50
2023-03-02T11:35:32.689Z,26.60
2023-03-02T11:38:12.311Z,32.63
2023-03-02T11:40:48.387Z,24.53
2023-03-02T11:43:17.116Z,40.00
2023-03-02T11:45:47.946Z,37.27
2023-03-02T11:48:24.203Z,32.70
2023-03-02T11:50:59.398Z,27.57
2023-03-02T11:53:33.492Z,20.40
2023-03-02T11:56:02.196Z,23.03
2023-03-02T11:58:33.056Z,22.07
2023-03-02T12:01:08.878Z,21.23
2023-03-02T12:03:45.885Z,27.27
2023-03-02T12:06:42.101Z,25.97
2023-03-02T12:09:39.099Z,39.33
2023-03-02T12:12:58.221Z,46.00
2023-03-02T12:15:51.518Z,54.67
2023-03-02T12:18:47.086Z,46.97
2023-03-02T12:21:23.657Z,52.47
2023-03-02T12:24:06.454Z,35.37
2023-03-02T12:26:37.830Z,35.17
2023-03-02T12:29:22.859Z,27.50
2023-03-02T12:31:54.174Z,25.73
2023-03-02T12:34:44.350Z,22.87
2023-03-02T12:37:19.997Z,20.57
2023-03-02T12:40:25.254Z,18.67
2023-03-02T12:43:30.038Z,19.13
2023-03-02T12:46:37.554Z,22.70
2023-03-02T12:49:28.552Z,22.60
2023-03-02T12:51:59.099Z,19.90
2023-03-02T12:54:29.570Z,16.90
2023-03-02T12:57:09.089Z,15.33
2023-03-02T12:59:38.233Z,15.60
2023-03-02T13:02:25.876Z,14.63
2023-03-02T13:04:56.718Z,15.57
2023-03-02T13:07:28.877Z,19.43
2023-03-02T13:10:00.084Z,13.80
2023-03-02T13:12:32.474Z,18.43
2023-03-02T13:15:01.597Z,17.17
2023-03-02T13:17:31.433Z,18.53
2023-03-02T13:20:01.938Z,17.67
2023-03-02T13:22:31.272Z,18.60
2023-03-02T13:25:02.400Z,15.60
2023-03-02T13:27:34.113Z,17.37
2023-03-02T13:30:13.648Z,19.40
2023-03-02T13:32:43.598Z,20.90
2023-03-02T13:35:19.733Z,19.40
2023-03-02T13:37:48.287Z,18.17
2023-03-02T13:40:35.332Z,16.47
2023-03-02T13:43:08.920Z,22.70
2023-03-02T13:45:38.752Z,27.57
2023-03-02T13:48:16.080Z,22.07
2023-03-02T13:50:54.462Z,24.27
2023-03-02T13:53:24.480Z,43.23
2023-03-02T13:55:54.632Z,31.63
2023-03-02T13:58:25.822Z,40.93
2023-03-02T14:00:54.914Z,42.80
2023-03-02T14:03:26.998Z,43.10
2023-03-02T14:05:56.913Z,58.40
2023-03-02T14:08:25.670Z,37.00
2023-03-02T14:10:57.414Z,32.77
2023-03-02T14:13:31.793Z,28.10
2023-03-02T14:16:00.522Z,69.80
2023-03-02T14:18:34.548Z,51.80
2023-03-02T14:21:03.214Z,39.37
2023-03-02T14:23:31.995Z,43.57
2023-03-02T14:26:00.656Z,33.30
2023-03-02T14:28:35.809Z,31.27
2023-03-02T14:31:04.565Z,26.00
2023-03-02T14:33:33.149Z,20.83
2023-03-02T14:36:01.771Z,19.90
2023-03-02T14:38:31.298Z,29.23
2023-03-02T14:41:00.048Z,20.43
2023-03-02T14:43:30.845Z,23.83
2023-03-02T14:46:00.872Z,21.53
2023-03-02T14:48:29.590Z,24.03
2023-03-02T14:51:01.046Z,17.73
2023-03-02T14:53:34.495Z,21.90
2023-03-02T14:56:03.495Z,21.27
2023-03-02T14:58:34.578Z,22.03
2023-03-02T15:01:04.846Z,21.53
2023-03-02T15:03:33.639Z,28.20
2023-03-02T15:06:02.465Z,25.37
2023-03-02T15:08:31.428Z,19.40
2023-03-02T15:11:00.083Z,22.50
2023-03-02T15:13:28.649Z,45.17
2023-03-02T15:15:57.541Z,35.23
2023-03-02T15:18:27.565Z,39.60
2023-03-02T15:20:56.183Z,41.67
2023-03-02T15:23:24.841Z,40.77
2023-03-02T15:25:53.730Z,34.47
2023-03-02T15:28:22.281Z,34.33
2023-03-02T15:30:50.829Z,35.23
2023-03-02T15:33:19.493Z,34.20
2023-03-02T15:35:55.287Z,41.07
2023-03-02T15:38:25.075Z,50.70
2023-03-02T15:40:54.560Z,49.57
2023-03-02T15:43:24.472Z,61.57
2023-03-02T15:45:52.999Z,79.47
2023-03-02T15:48:21.549Z,66.17
2023-03-02T15:50:59.622Z,60.07
2023-03-02T15:53:29.052Z,58.30
2023-03-02T15:55:57.859Z,56.20
2023-03-02T15:58:26.569Z,53.03
2023-03-02T16:00:57.056Z,54.30
2023-03-02T16:03:26.075Z,53.03
2023-03-02T16:05:59.521Z,55.70
2023-03-02T16:08:32.845Z,54.57
2023-03-02T16:11:03.053Z,51.83
2023-03-02T16:13:32.164Z,65.27
2023-03-02T16:16:03.373Z,74.67
2023-03-02T16:18:31.980Z,76.77
2023-03-02T16:21:02.607Z,60.20
2023-03-02T16:23:32.651Z,55.40
2023-03-02T16:26:09.002Z,61.07
2023-03-02T16:28:37.939Z,71.40
2023-03-02T16:31:07.555Z,108.13
2023-03-02T16:33:36.462Z,78.87
2023-03-02T16:36:05.383Z,72.10
2023-03-02T16:38:37.092Z,55.83
2023-03-02T16:41:06.362Z,48.50
2023-03-02T16:43:35.181Z,47.73
2023-03-02T16:46:04.070Z,44.33
2023-03-02T16:48:32.723Z,44.93
2023-03-02T16:51:03.496Z,55.60
2023-03-02T16:53:32.142Z,53.83
2023-03-02T16:56:02.340Z,54.33
2023-03-02T16:58:31.104Z,56.77
2023-03-02T17:00:59.925Z,66.47
2023-03-02T17:03:28.676Z,64.27
2023-03-02T17:05:57.298Z,63.93
2023-03-02T17:08:26.427Z,69.73
2023-03-02T17:10:55.187Z,67.17
2023-03-02T17:13:25.458Z,60.97
2023-03-02T17:15:54.172Z,59.17
2023-03-02T17:18:22.811Z,61.37
2023-03-02T17:20:53.348Z,58.37
2023-03-02T17:23:22.402Z,56.20
2023-03-02T17:25:51.248Z,52.60
2023-03-02T17:28:19.818Z,55.53
2023-03-02T17:30:49.808Z,52.67
2023-03-02T17:33:18.564Z,59.03
2023-03-02T17:35:47.627Z,55.43
2023-03-02T17:38:17.254Z,67.47
2023-03-02T17:40:46.055Z,64.23
2023-03-02T17:43:14.960Z,61.47
2023-03-02T17:45:43.694Z,59.67
2023-03-02T17:48:13.837Z,58.87
2023-03-02T17:50:42.583Z,62.83
2023-03-02T17:53:11.263Z,70.00
2023-03-02T17:55:39.867Z,70.17
2023-03-02T17:58:08.737Z,65.80
2023-03-02T18:00:42.210Z,68.67
2023-03-02T18:03:12.415Z,60.10
2023-03-02T18:05:41.092Z,59.63
2023-03-02T18:08:10.258Z,61.30
2023-03-02T18:10:50.657Z,62.80
2023-03-02T18:13:20.695Z,65.57
2023-03-02T18:15:49.816Z,65.47
2023-03-02T18:18:19.862Z,59.77
2023-03-02T18:20:48.623Z,63.57
2023-03-02T18:23:17.416Z,63.67
2023-03-02T18:25:46.639Z,64.27
2023-03-02T18:28:15.826Z,64.57
2023-03-02T18:30:44.921Z,70.20
2023-03-02T18:33:13.725Z,65.17
2023-03-02T18:35:44.445Z,64.10
2023-03-02T18:38:13.375Z,67.13
2023-03-02T18:40:42.807Z,62.50
2023-03-02T18:43:11.623Z,63.27
2023-03-02T18:45:41.786Z,64.67
2023-03-02T18:48:10.496Z,66.07
2023-03-02T18:50:40.033Z,66.70
2023-03-02T18:53:12.811Z,72.33
2023-03-02T18:55:41.794Z,83.77
2023-03-02T18:58:13.965Z,111.10
2023-03-02T19:00:43.316Z,116.17
2023-03-02T19:03:12.355Z,98.37
2023-03-02T19:05:41.399Z,103.13
2023-03-02T19:08:11.963Z,101.33
2023-03-02T19:10:42.553Z,100.97
2023-03-02T19:13:12.031Z,95.83
2023-03-02T19:15:41.031Z,90.70
2023-03-02T19:18:09.963Z,85.83
2023-03-02T19:20:38.508Z,81.33
2023-03-02T19:23:07.089Z,85.03
2023-03-02T19:25:37.516Z,86.93
2023-03-02T19:28:06.249Z,84.83
2023-03-02T19:30:37.080Z,84.27
2023-03-02T19:33:07.585Z,81.10
2023-03-02T19:35:37.915Z,82.47
2023-03-02T19:38:07.302Z,86.53
2023-03-02T19:40:45.356Z,85.57
2023-03-02T19:43:13.927Z,88.63
2023-03-02T19:45:42.643Z,86.33
2023-03-02T19:48:13.907Z,89.13
2023-03-02T19:50:43.538Z,90.67
2023-03-02T19:53:12.157Z,95.63
2023-03-02T19:55:43.247Z,95.20
2023-03-02T19:58:17.385Z,92.80
2023-03-02T20:00:47.557Z,92.10
2023-03-02T20:03:16.374Z,92.90
2023-03-02T20:05:45.001Z,87.33
2023-03-02T20:08:13.540Z,86.40
2023-03-02T20:10:45.411Z,88.07
2023-03-02T20:13:14.533Z,89.40
2023-03-02T20:15:45.716Z,90.77
2023-03-02T20:18:16.635Z,92.13
2023-03-02T20:20:45.912Z,96.47
2023-03-02T20:23:15.004Z,96.33
2023-03-02T20:25:47.934Z,102.83
2023-03-02T20:28:19.288Z,104.10
2023-03-02T20:30:50.353Z,107.97
2023-03-02T20:33:20.374Z,104.87
2023-03-02T20:35:50.099Z,104.53
2023-03-02T20:38:24.357Z,104.40
2023-03-02T20:40:54.479Z,104.60
2023-03-02T20:43:23.255Z,103.00
2023-03-02T20:45:52.252Z,102.87
2023-03-02T20:48:22.477Z,108.33
2023-03-02T20:50:51.487Z,111.93
2023-03-02T20:53:20.857Z,113.50
2023-03-02T20:55:49.499Z,110.97
2023-03-02T20:58:19.644Z,114.87
2023-03-02T21:00:49.006Z,115.07
2023-03-02T21:03:17.780Z,113.53
2023-03-02T21:05:46.342Z,115.67
2023-03-02T21:08:15.555Z,118.63
2023-03-02T21:10:45.261Z,114.50
2023-03-02T21:13:14.030Z,116.57
2023-03-02T21:15:44.262Z,108.43
2023-03-02T21:18:13.019Z,109.03
2023-03-02T21:20:41.730Z,107.23
2023-03-02T21:23:11.260Z,106.40
2023-03-02T21:25:42.212Z,104.07
2023-03-02T21:28:11.141Z,102.63
2023-03-02T21:30:39.709Z,107.87
2023-03-02T21:33:10.000Z,102.33
2023-03-02T21:35:41.636Z,98.77
2023-03-02T21:38:10.286Z,96.10
2023-03-02T21:40:46.048Z,100.10
2023-03-02T21:43:15.462Z,94.40
2023-03-02T21:45:45.643Z,100.80
2023-03-02T21:48:16.554Z,101.43
2023-03-02T21:50:45.619Z,100.67
2023-03-02T21:53:14.663Z,98.73
2023-03-02T21:55:45.862Z,93.03
2023-03-02T21:58:14.875Z,91.23
2023-03-02T22:00:43.592Z,92.47
2023-03-02T22:03:12.820Z,93.23
2023-03-02T22:05:42.912Z,88.83
2023-03-02T22:08:15.024Z,95.83
2023-03-02T22:10:45.443Z,89.03
2023-03-02T22:13:21.264Z,91.17
2023-03-02T22:15:51.451Z,91.23
2023-03-02T22:18:25.546Z,89.83
2023-03-02T22:20:55.771Z,89.93
2023-03-02T22:23:26.475Z,84.57
2023-03-02T22:25:57.687Z,86.33
2023-03-02T22:28:29.692Z,83.83
2023-03-02T22:31:01.478Z,83.33
2023-03-02T22:33:30.840Z,83.50
2023-03-02T22:36:05.862Z,81.00
2023-03-02T22:38:34.781Z,78.13
2023-03-02T22:41:04.683Z,77.43
2023-03-02T22:43:34.431Z,78.00
2023-03-02T22:46:15.663Z,71.23
2023-03-02T22:48:46.315Z,70.90
2023-03-02T22:51:18.718Z,70.73
2023-03-02T22:53:50.550Z,70.10
2023-03-02T22:56:30.621Z,68.60
2023-03-02T22:59:04.196Z,72.50
2023-03-02T23:01:40.884Z,67.23
2023-03-02T23:04:18.529Z,70.30
2023-03-02T23:06:50.115Z,79.33
2023-03-02T23:09:21.255Z,90.50
2023-03-02T23:11:51.071Z,88.50
2023-03-02T23:14:24.363Z,86.10
2023-03-02T23:16:56.063Z,83.57
2023-03-02T23:19:25.292Z,83.00
2023-03-02T23:21:55.693Z,76.43
2023-03-02T23:24:24.371Z,74.80
2023-03-02T23:26:54.579Z,71.83
2023-03-02T23:29:23.451Z,70.33
2023-03-02T23:31:52.471Z,67.70
2023-03-02T23:34:21.822Z,65.43
2023-03-02T23:36:50.507Z,66.53
2023-03-02T23:39:20.678Z,68.40
2023-03-02T23:41:49.555Z,66.87
2023-03-02T23:44:19.794Z,67.90
2023-03-02T23:46:48.722Z,67.57
2023-03-02T23:49:17.482Z,70.87
2023-03-02T23:51:46.113Z,69.60
2023-03-02T23:54:14.661Z,68.87
2023-03-02T23:56:44.745Z,65.40
2023-03-02T23:59:13.422Z,66.27
